Baiyangqiao, China

30°F / -1°C
Haze
Windchill: 24°F / -5°C
Humidity: 60%
Dew Point: 18°F / -8°C
Wind: WNW at 7 mph / 11 km/h
Pressure: 30.30 in / 1026 hPa (Falling)
Visibility: 1.7 miles / 2.8 kilometers
Clouds:
Yesterday's Maximum: 37°F / 3°C
Yesterday's Minimum: 30°F / -1°C approx.
Yesterday's Heating Degree Days: 31 approx.
Sunrise:6:58 AM CST
Sunset:5:55 PM CST
Moon Rise:6:43 PM CST
Moon Set:7:29 AM CST
Moon Phase Full Moon
NOAA Weather Radio
No local feed.
METAR ZBTJ 192030Z 29003MPS 2800 HZ NSC M01/M08 Q1026 NOSIG
As of: 4:30 AM CST on February 20, 2019
Observed at: Tianjin, China

View Station's History

Local Satellite

Current Satellite Forecast
Region Default Local
No Yes

View Full Screen WunderMap

Forecast

Current Satellite Forecast
Tuesday
. High: 37° F. / 2° C.

. High: 32° F. / 0° C.

Features

Weather Apps

WunderRadio

Weather Underground Apps
Check out our wide variety of mobile and setup applications.

Weather Underground Applications

Top of Page

© Copyright 2019
The Weather Company, LLC